Time;durP1;ratioP1;P1;durP2;ratioP2;P2;SDS_P1;SDS_P2;PMS_P1;PMS_P2;Temp;Humidity;BMP_temperature;BMP_pressure;BME280_temperature;BME280_humidity;BME280_pressure;Samples;Min_cycle;Max_cycle;Signal;HPM_P1;HPM_P2
2023/01/22 01:59:49;;;;;;;20.42;8.05;;;;;;;;;;6181069;22;1598940;-75
2023/01/22 02:04:53;;;;;;;19.75;8.07;;;;;;;;;;5975311;23;20022;-71
2023/01/22 02:07:29;;;;;;;18.98;7.68;;;;;;;;;;6003690;23;20037;-74
2023/01/22 02:10:04;;;;;;;16.65;7.70;;;;;;;;;;6049776;23;20052;-72
2023/01/22 02:12:32;;;;;;;18.63;7.75;;;;;;;;;;6091223;23;20116;-73
2023/01/22 02:15:02;;;;;;;23.02;7.93;;;;;;;;;;6091290;23;20048;-71
2023/01/22 02:17:30;;;;;;;19.77;8.18;;;;;;;;;;6082472;23;20111;-73
2023/01/22 02:22:39;;;;;;;19.45;8.13;;;;;;;;;;6010982;23;20099;-76
2023/01/22 02:25:06;;;;;;;20.33;7.90;;;;;;;;;;6056895;23;20025;-73
2023/01/22 02:27:33;;;;;;;17.85;7.35;;;;;;;;;;6130549;23;20031;-70
2023/01/22 02:30:00;;;;;;;15.88;6.82;;;;;;;;;;6162552;23;20028;-74
2023/01/22 02:32:27;;;;;;;15.05;6.93;;;;;;;;;;6184576;23;20029;-75
2023/01/22 02:34:54;;;;;;;17.88;7.95;;;;;;;;;;6205171;23;20056;-73
2023/01/22 02:37:21;;;;;;;16.23;7.22;;;;;;;;;;6181244;23;20028;-74
2023/01/22 02:39:49;;;;;;;19.30;7.70;;;;;;;;;;6166401;23;20028;-74
2023/01/22 02:42:16;;;;;;;16.65;7.07;;;;;;;;;;6183580;23;20020;-76
2023/01/22 02:44:42;;;;;;;19.33;7.30;;;;;;;;;;6158853;23;20085;-74
2023/01/22 02:47:12;;;;;;;17.75;7.85;;;;;;;;;;6150552;23;20177;-72
2023/01/22 02:49:38;;;;;;;14.30;6.82;;;;;;;;;;6153018;23;20056;-71
2023/01/22 02:52:05;;;;;;;16.77;7.40;;;;;;;;;;6175720;22;20028;-71
2023/01/22 02:54:32;;;;;;;15.95;7.05;;;;;;;;;;6238010;22;20024;-73
2023/01/22 02:57:03;;;;;;;17.27;7.38;;;;;;;;;;6187485;22;20054;-73
2023/01/22 02:59:30;;;;;;;17.23;7.20;;;;;;;;;;6190171;22;20089;-71
2023/01/22 03:01:57;;;;;;;20.42;7.20;;;;;;;;;;6188018;22;20058;-73
2023/01/22 03:04:23;;;;;;;18.95;7.78;;;;;;;;;;6115330;22;20090;-70
2023/01/22 03:06:50;;;;;;;17.65;7.28;;;;;;;;;;6193745;22;20027;-72
2023/01/22 03:09:17;;;;;;;14.88;6.40;;;;;;;;;;6211745;22;20032;-73
2023/01/22 03:11:46;;;;;;;16.52;7.38;;;;;;;;;;6220207;22;20024;-71
2023/01/22 03:22:27;;;;;;;14.80;6.68;;;;;;;;;;6194980;22;20028;-70
2023/01/22 03:24:54;;;;;;;15.18;7.13;;;;;;;;;;6195674;23;20038;-71
2023/01/22 03:27:22;;;;;;;14.82;6.07;;;;;;;;;;6193693;22;20024;-73
2023/01/22 03:29:51;;;;;;;14.60;6.68;;;;;;;;;;6193747;23;20024;-72
2023/01/22 03:32:17;;;;;;;;;;;;;;;;;;6198110;23;20081;-69
2023/01/22 03:34:44;;;;;;;15.60;5.57;;;;;;;;;;6209259;22;19920;-71
2023/01/22 03:37:11;;;;;;;15.60;6.45;;;;;;;;;;6212792;22;20024;-71
2023/01/22 03:39:38;;;;;;;15.23;6.90;;;;;;;;;;6196488;22;20028;-71
2023/01/22 03:42:05;;;;;;;17.35;6.82;;;;;;;;;;6186916;23;20066;-73
2023/01/22 03:44:32;;;;;;;15.52;6.57;;;;;;;;;;6177239;22;20032;-70
2023/01/22 03:47:00;;;;;;;19.85;6.57;;;;;;;;;;6185567;22;20058;-74
2023/01/22 03:49:26;;;;;;;14.02;6.57;;;;;;;;;;6188531;22;20032;-70
2023/01/22 03:51:53;;;;;;;14.60;6.45;;;;;;;;;;6189172;23;20024;-73
2023/01/22 03:54:20;;;;;;;15.43;6.53;;;;;;;;;;6149324;23;20028;-73
2023/01/22 03:56:46;;;;;;;12.85;5.68;;;;;;;;;;6166361;23;20028;-72
2023/01/22 03:59:14;;;;;;;14.95;6.15;;;;;;;;;;6138679;23;20111;-73
2023/01/22 04:01:41;;;;;;;17.52;6.80;;;;;;;;;;6167627;23;20021;-72
2023/01/22 04:04:09;;;;;;;15.10;6.35;;;;;;;;;;6157670;23;20032;-72
2023/01/22 04:06:35;;;;;;;12.32;5.82;;;;;;;;;;6165725;23;20029;-71
2023/01/22 04:09:02;;;;;;;15.38;6.03;;;;;;;;;;6166223;23;20226;-70
2023/01/22 04:11:29;;;;;;;13.38;6.22;;;;;;;;;;6159865;23;20078;-71
2023/01/22 04:13:55;;;;;;;13.70;6.45;;;;;;;;;;6188336;23;20111;-72
2023/01/22 04:16:22;;;;;;;14.15;5.82;;;;;;;;;;6170637;23;20029;-73
2023/01/22 04:18:49;;;;;;;15.65;6.00;;;;;;;;;;6194138;23;20028;-71
2023/01/22 04:21:17;;;;;;;14.40;5.60;;;;;;;;;;6161636;23;20031;-73
2023/01/22 04:23:44;;;;;;;12.98;5.88;;;;;;;;;;6187617;23;20028;-73
2023/01/22 04:26:11;;;;;;;14.05;6.13;;;;;;;;;;6165148;23;20035;-71
2023/01/22 04:28:38;;;;;;;14.77;6.35;;;;;;;;;;6194496;23;20036;-71
2023/01/22 04:31:04;;;;;;;13.35;6.03;;;;;;;;;;6154820;23;20024;-70
2023/01/22 04:33:31;;;;;;;14.00;6.00;;;;;;;;;;6154788;23;20098;-73
2023/01/22 04:35:58;;;;;;;14.38;6.38;;;;;;;;;;6148177;23;20032;-72
2023/01/22 04:38:26;;;;;;;13.50;5.85;;;;;;;;;;6168531;23;20032;-71
2023/01/22 04:40:53;;;;;;;13.07;6.15;;;;;;;;;;6166578;23;20028;-72
2023/01/22 04:43:20;;;;;;;12.50;5.90;;;;;;;;;;6179788;22;20040;-73
2023/01/22 04:45:46;;;;;;;11.60;5.32;;;;;;;;;;6152854;23;20033;-71
2023/01/22 04:48:13;;;;;;;12.55;6.10;;;;;;;;;;6168193;23;20024;-72
2023/01/22 04:50:39;;;;;;;12.15;5.28;;;;;;;;;;6168064;23;20048;-71
2023/01/22 04:53:06;;;;;;;14.88;5.63;;;;;;;;;;6165898;23;20028;-71
2023/01/22 04:55:34;;;;;;;12.60;5.65;;;;;;;;;;6182190;23;20048;-72
2023/01/22 04:58:01;;;;;;;15.77;6.15;;;;;;;;;;6167965;23;20024;-72
2023/01/22 05:00:28;;;;;;;13.75;5.53;;;;;;;;;;6157118;23;20068;-71
2023/01/22 05:02:56;;;;;;;10.38;4.95;;;;;;;;;;6161253;23;20036;-71
2023/01/22 05:05:23;;;;;;;11.65;5.28;;;;;;;;;;6150050;23;20072;-72
2023/01/22 05:07:49;;;;;;;11.55;5.18;;;;;;;;;;6143986;23;20076;-71
2023/01/22 05:10:16;;;;;;;11.52;4.85;;;;;;;;;;6162800;23;20025;-71
2023/01/22 05:12:45;;;;;;;12.93;5.45;;;;;;;;;;6139025;23;20113;-70
2023/01/22 05:15:12;;;;;;;12.30;5.88;;;;;;;;;;6165099;23;20104;-72
2023/01/22 05:17:39;;;;;;;16.90;5.90;;;;;;;;;;6158752;23;20024;-72
2023/01/22 05:20:14;;;;;;;14.27;5.47;;;;;;;;;;6153955;23;20032;-71
2023/01/22 05:22:41;;;;;;;11.90;5.57;;;;;;;;;;6162236;23;20028;-72
2023/01/22 05:25:08;;;;;;;10.85;4.68;;;;;;;;;;6166537;23;20024;-72
2023/01/22 05:27:35;;;;;;;11.37;5.27;;;;;;;;;;6155033;23;20252;-71
2023/01/22 05:30:06;;;;;;;11.52;5.43;;;;;;;;;;6138059;23;20043;-71
2023/01/22 05:32:33;;;;;;;13.00;5.53;;;;;;;;;;6145643;22;20024;-71
2023/01/22 05:35:00;;;;;;;11.77;4.90;;;;;;;;;;6193263;23;20020;-71
2023/01/22 05:37:26;;;;;;;14.35;5.95;;;;;;;;;;6156227;23;20028;-72
2023/01/22 05:39:53;;;;;;;13.75;4.85;;;;;;;;;;6168346;23;20104;-72
2023/01/22 05:42:20;;;;;;;16.65;5.75;;;;;;;;;;6188732;23;20092;-72
2023/01/22 05:44:47;;;;;;;14.40;5.50;;;;;;;;;;6160396;23;20020;-71
2023/01/22 05:47:16;;;;;;;12.18;5.43;;;;;;;;;;6169019;23;20025;-73
2023/01/22 05:49:43;;;;;;;13.68;5.35;;;;;;;;;;6164671;23;20025;-71
2023/01/22 05:52:10;;;;;;;12.13;5.30;;;;;;;;;;6194387;22;20035;-71
2023/01/22 05:54:38;;;;;;;12.75;5.55;;;;;;;;;;6155643;23;20021;-71
2023/01/22 05:57:05;;;;;;;13.30;5.35;;;;;;;;;;6148904;23;20025;-71
2023/01/22 05:59:35;;;;;;;14.52;5.45;;;;;;;;;;6173377;23;20024;-72
2023/01/22 06:02:02;;;;;;;12.15;4.95;;;;;;;;;;6168725;23;20017;-71
2023/01/22 06:04:30;;;;;;;10.63;4.90;;;;;;;;;;6158227;23;20036;-72
2023/01/22 06:06:56;;;;;;;11.70;5.43;;;;;;;;;;6166766;23;20070;-71
2023/01/22 06:09:23;;;;;;;9.93;4.80;;;;;;;;;;6155186;23;20023;-72
2023/01/22 06:11:50;;;;;;;12.63;5.25;;;;;;;;;;6191087;23;20028;-71
2023/01/22 06:14:17;;;;;;;9.05;4.47;;;;;;;;;;6158263;23;20039;-71
2023/01/22 06:16:44;;;;;;;11.63;5.38;;;;;;;;;;6167589;23;20132;-71
2023/01/22 06:19:11;;;;;;;11.45;4.93;;;;;;;;;;6187564;23;20020;-72
2023/01/22 06:21:42;;;;;;;12.77;4.95;;;;;;;;;;6161303;23;20055;-71
2023/01/22 06:24:09;;;;;;;10.93;4.80;;;;;;;;;;6161598;23;20031;-72
2023/01/22 06:26:36;;;;;;;11.55;4.65;;;;;;;;;;6152479;23;20036;-71
2023/01/22 06:29:03;;;;;;;12.82;4.80;;;;;;;;;;6190825;23;20025;-71
2023/01/22 06:31:31;;;;;;;10.98;4.60;;;;;;;;;;6181230;23;20086;-71
2023/01/22 06:33:58;;;;;;;11.40;4.80;;;;;;;;;;6162262;23;20024;-71
2023/01/22 06:36:24;;;;;;;12.38;5.05;;;;;;;;;;6164380;23;20295;-71
2023/01/22 06:38:53;;;;;;;11.70;5.10;;;;;;;;;;6167143;23;20058;-71
2023/01/22 06:41:19;;;;;;;12.52;5.25;;;;;;;;;;6156987;23;20130;-71
2023/01/22 06:43:46;;;;;;;15.65;5.13;;;;;;;;;;6164335;23;20290;-71
2023/01/22 06:46:13;;;;;;;11.32;4.53;;;;;;;;;;6163537;23;20146;-70
2023/01/22 06:48:42;;;;;;;11.93;4.88;;;;;;;;;;6191662;23;20028;-71
2023/01/22 06:51:09;;;;;;;13.13;5.15;;;;;;;;;;6188705;23;20021;-71
2023/01/22 06:53:36;;;;;;;9.90;4.43;;;;;;;;;;6155155;23;20040;-71
2023/01/22 06:56:04;;;;;;;11.65;4.60;;;;;;;;;;6169375;23;20032;-71
2023/01/22 06:58:31;;;;;;;13.18;5.43;;;;;;;;;;6166695;23;20123;-70
2023/01/22 07:00:59;;;;;;;10.45;4.45;;;;;;;;;;6164584;23;20074;-71
2023/01/22 07:03:26;;;;;;;;;;;;;;;;;;6148039;23;20052;-71
2023/01/22 07:05:55;;;;;;;10.77;4.70;;;;;;;;;;6152516;23;19919;-71
2023/01/22 07:08:22;;;;;;;11.50;4.82;;;;;;;;;;6160597;23;20033;-70
2023/01/22 07:10:49;;;;;;;12.70;4.28;;;;;;;;;;6158503;23;20025;-70
2023/01/22 07:13:17;;;;;;;13.23;4.75;;;;;;;;;;6163113;23;20024;-71
2023/01/22 07:15:44;;;;;;;11.73;4.82;;;;;;;;;;6165773;23;20032;-71
2023/01/22 07:18:13;;;;;;;12.60;4.72;;;;;;;;;;6167438;23;20083;-71
2023/01/22 07:20:40;;;;;;;11.57;4.55;;;;;;;;;;6168531;23;20039;-71
2023/01/22 07:23:10;;;;;;;11.07;4.47;;;;;;;;;;6163111;23;20090;-71
2023/01/22 07:25:37;;;;;;;9.43;4.43;;;;;;;;;;6150859;23;20123;-71
2023/01/22 07:28:04;;;;;;;11.98;5.18;;;;;;;;;;6164636;23;20025;-72
2023/01/22 07:30:33;;;;;;;12.63;4.18;;;;;;;;;;6166430;23;20044;-71
2023/01/22 07:33:00;;;;;;;12.13;4.65;;;;;;;;;;6161862;23;20036;-71
2023/01/22 07:35:27;;;;;;;10.30;4.60;;;;;;;;;;6154401;23;20107;-71
2023/01/22 07:37:54;;;;;;;10.02;4.10;;;;;;;;;;6164951;23;20028;-71
2023/01/22 07:40:23;;;;;;;9.02;3.88;;;;;;;;;;6191144;23;20021;-71
2023/01/22 07:42:50;;;;;;;10.43;5.07;;;;;;;;;;6177568;23;20024;-71
2023/01/22 07:45:18;;;;;;;13.18;4.32;;;;;;;;;;6157665;23;20055;-72
2023/01/22 07:47:53;;;;;;;10.77;4.53;;;;;;;;;;6190441;23;20021;-71
2023/01/22 07:50:20;;;;;;;9.43;4.15;;;;;;;;;;6169184;23;20115;-71
2023/01/22 07:52:46;;;;;;;11.52;4.70;;;;;;;;;;6160774;23;20078;-70
2023/01/22 07:55:14;;;;;;;13.52;4.47;;;;;;;;;;6165954;23;20029;-71
2023/01/22 07:57:41;;;;;;;9.55;4.47;;;;;;;;;;6162014;23;20126;-71
2023/01/22 08:00:11;;;;;;;15.73;4.80;;;;;;;;;;6157275;23;20055;-71
2023/01/22 08:02:38;;;;;;;10.93;4.53;;;;;;;;;;6165187;23;20091;-71
2023/01/22 08:05:12;;;;;;;11.02;5.03;;;;;;;;;;6155806;23;20033;-71
2023/01/22 08:07:39;;;;;;;9.68;3.72;;;;;;;;;;6163149;23;20110;-71
2023/01/22 08:10:07;;;;;;;12.45;4.90;;;;;;;;;;6155745;23;20020;-71
2023/01/22 08:12:36;;;;;;;9.77;4.55;;;;;;;;;;6149513;23;20060;-71
2023/01/22 08:15:02;;;;;;;12.18;4.43;;;;;;;;;;6162124;23;20033;-71
2023/01/22 08:17:32;;;;;;;10.32;4.30;;;;;;;;;;6151092;23;20028;-71
2023/01/22 08:19:59;;;;;;;9.38;4.20;;;;;;;;;;6167279;23;20060;-71
2023/01/22 08:22:27;;;;;;;10.18;4.50;;;;;;;;;;6165194;23;20048;-71
2023/01/22 08:24:54;;;;;;;10.77;4.10;;;;;;;;;;6120023;23;20099;-71
2023/01/22 08:27:21;;;;;;;10.00;4.65;;;;;;;;;;6127792;23;20185;-71
2023/01/22 08:29:48;;;;;;;12.82;5.35;;;;;;;;;;6154844;23;20048;-71
2023/01/22 08:32:15;;;;;;;10.98;4.63;;;;;;;;;;6161644;23;20072;-71
2023/01/22 08:34:42;;;;;;;9.65;3.75;;;;;;;;;;6167250;23;20103;-71
2023/01/22 08:37:09;;;;;;;10.18;4.07;;;;;;;;;;6167138;23;20050;-71
2023/01/22 08:39:37;;;;;;;11.75;4.78;;;;;;;;;;6158494;23;20020;-71
2023/01/22 08:42:04;;;;;;;9.30;3.90;;;;;;;;;;6153909;23;20024;-71
2023/01/22 08:44:31;;;;;;;8.95;3.97;;;;;;;;;;6159670;23;20082;-71
2023/01/22 08:46:58;;;;;;;10.63;4.38;;;;;;;;;;6193858;23;20028;-71
2023/01/22 08:49:25;;;;;;;11.02;4.30;;;;;;;;;;6158473;23;20020;-71
2023/01/22 08:51:52;;;;;;;10.07;4.35;;;;;;;;;;6165757;23;20086;-71
2023/01/22 08:54:18;;;;;;;9.70;4.22;;;;;;;;;;6172155;23;20070;-71
2023/01/22 08:56:47;;;;;;;8.93;4.20;;;;;;;;;;6163095;23;20193;-71
2023/01/22 08:59:17;;;;;;;10.93;4.32;;;;;;;;;;6081485;23;20032;-71
2023/01/22 09:01:44;;;;;;;11.32;4.38;;;;;;;;;;6099798;23;20025;-71
2023/01/22 09:04:10;;;;;;;10.07;4.20;;;;;;;;;;6035581;23;20033;-70
2023/01/22 09:06:38;;;;;;;11.23;4.40;;;;;;;;;;6039185;23;20022;-71
2023/01/22 09:09:10;;;;;;;8.13;4.00;;;;;;;;;;6058475;23;20112;-72
2023/01/22 09:11:45;;;;;;;10.70;4.22;;;;;;;;;;6015476;23;20029;-71
2023/01/22 09:14:16;;;;;;;10.57;3.90;;;;;;;;;;6024813;23;20072;-71
2023/01/22 09:24:35;;;;;;;11.75;4.72;;;;;;;;;;5873563;23;20089;-70
2023/01/22 09:29:29;;;;;;;9.52;3.95;;;;;;;;;;5951269;23;20026;-70
2023/01/22 09:31:56;;;;;;;9.10;3.80;;;;;;;;;;6101968;23;20025;-71
2023/01/22 09:34:23;;;;;;;10.05;4.22;;;;;;;;;;6044464;23;20100;-72
2023/01/22 09:36:51;;;;;;;10.75;4.22;;;;;;;;;;6147224;23;20028;-72
2023/01/22 09:39:18;;;;;;;10.20;4.25;;;;;;;;;;6168005;23;20031;-72
2023/01/22 09:41:48;;;;;;;9.68;4.18;;;;;;;;;;6117459;23;20032;-71
2023/01/22 09:44:18;;;;;;;10.02;4.07;;;;;;;;;;6116309;23;20032;-70
2023/01/22 09:46:54;;;;;;;9.30;4.15;;;;;;;;;;6142994;23;20055;-71
2023/01/22 09:49:24;;;;;;;10.98;4.10;;;;;;;;;;6135852;23;20024;-71
2023/01/22 09:51:56;;;;;;;8.38;3.83;;;;;;;;;;6167821;23;20092;-70
2023/01/22 09:54:23;;;;;;;9.32;4.53;;;;;;;;;;6058465;23;20026;-69
2023/01/22 09:56:51;;;;;;;10.07;4.00;;;;;;;;;;6126837;23;20055;-70
2023/01/22 09:59:32;;;;;;;11.55;4.20;;;;;;;;;;6107288;23;20171;-72
2023/01/22 10:02:15;;;;;;;9.85;4.15;;;;;;;;;;6151090;23;20020;-72
2023/01/22 10:04:47;;;;;;;9.15;4.00;;;;;;;;;;6052865;23;20060;-71
2023/01/22 10:07:32;;;;;;;10.70;4.35;;;;;;;;;;6049537;23;20127;-73
2023/01/22 10:10:12;;;;;;;8.57;4.00;;;;;;;;;;6088883;23;20032;-73
2023/01/22 10:12:39;;;;;;;10.23;4.25;;;;;;;;;;6093193;23;20052;-72
2023/01/22 10:18:18;;;;;;;9.82;4.15;;;;;;;;;;6118742;23;20036;-71
2023/01/22 10:20:45;;;;;;;10.85;3.60;;;;;;;;;;6139398;23;20049;-69
2023/01/22 10:23:25;;;;;;;7.47;3.33;;;;;;;;;;6120275;23;20036;-72
2023/01/22 10:26:01;;;;;;;8.02;3.70;;;;;;;;;;6102268;23;20067;-74
2023/01/22 10:28:43;;;;;;;10.63;4.03;;;;;;;;;;6009634;23;20065;-71
2023/01/22 10:31:19;;;;;;;10.25;4.07;;;;;;;;;;6005932;23;20030;-71
2023/01/22 10:33:55;;;;;;;8.45;3.60;;;;;;;;;;6016710;23;20033;-71
2023/01/22 10:36:24;;;;;;;9.30;4.07;;;;;;;;;;6067514;23;20025;-71
2023/01/22 10:39:01;;;;;;;9.52;3.80;;;;;;;;;;6088848;23;20037;-70
2023/01/22 10:41:31;;;;;;;9.38;3.83;;;;;;;;;;6031779;23;20139;-69
2023/01/22 10:46:25;;;;;;;8.90;3.50;;;;;;;;;;5862547;23;20029;-70
2023/01/22 10:49:13;;;;;;;9.80;4.32;;;;;;;;;;6005247;23;20019;-69
2023/01/22 10:51:42;;;;;;;12.02;4.07;;;;;;;;;;5989487;23;20113;-71
2023/01/22 11:13:10;;;;;;;;;;;;;;;;;;;;;
2023/01/22 11:39:23;;;;;;;9.27;3.90;;;;;;;;;;6189191;22;20377;-70
2023/01/22 11:42:06;;;;;;;10.82;4.00;;;;;;;;;;6063101;23;20124;-74
2023/01/22 11:44:43;;;;;;;12.32;4.32;;;;;;;;;;6034792;23;20030;-73
2023/01/22 11:47:28;;;;;;;9.60;3.88;;;;;;;;;;6019229;23;20106;-75
2023/01/22 12:19:33;;;;;;;10.60;4.45;;;;;;;;;;6118069;22;2045021;-71
